Time;durP1;ratioP1;P1;durP2;ratioP2;P2;SDS_P1;SDS_P2;PMS_P1;PMS_P2;Temp;Humidity;BMP_temperature;BMP_pressure;BME280_temperature;BME280_humidity;BME280_pressure;Samples;Min_cycle;Max_cycle;Signal;HPM_P1;HPM_P2
2023/10/13 00:00:36;;;;;;;5.80;4.82;;;;;;;;;;4983885;28;20499;-59
2023/10/13 00:03:06;;;;;;;4.03;3.38;;;;;;;;;;4985206;28;20407;-59
2023/10/13 00:05:33;;;;;;;3.90;3.22;;;;;;;;;;4985047;28;20045;-59
2023/10/13 00:08:03;;;;;;;2.95;2.65;;;;;;;;;;4983303;28;20605;-59
2023/10/13 00:10:36;;;;;;;3.42;2.65;;;;;;;;;;4963766;28;20387;-59
2023/10/13 00:15:40;;;;;;;2.33;2.10;;;;;;;;;;4981168;28;20046;-59
2023/10/13 00:18:12;;;;;;;3.65;3.35;;;;;;;;;;4985057;28;20117;-59
2023/10/13 00:20:39;;;;;;;4.13;3.50;;;;;;;;;;4984755;28;20042;-59
2023/10/13 00:23:06;;;;;;;3.00;2.70;;;;;;;;;;4984993;28;20414;-59
2023/10/13 00:25:43;;;;;;;4.97;4.18;;;;;;;;;;4983977;28;20044;-59
2023/10/13 00:28:09;;;;;;;4.68;4.03;;;;;;;;;;4984729;28;20062;-59
2023/10/13 00:30:36;;;;;;;4.03;3.53;;;;;;;;;;4984760;28;20467;-59
2023/10/13 00:33:04;;;;;;;3.38;3.08;;;;;;;;;;4983950;28;20042;-59
2023/10/13 00:35:36;;;;;;;3.30;3.00;;;;;;;;;;4985543;28;20049;-59
2023/10/13 00:38:18;;;;;;;3.65;3.35;;;;;;;;;;4984624;28;20074;-59
2023/10/13 00:40:51;;;;;;;4.28;3.58;;;;;;;;;;4984362;28;20278;-60
2023/10/13 00:48:34;;;;;;;;;;;;;;;;;;4982628;28;20125;-59
2023/10/13 00:51:12;;;;;;;8.67;7.57;;;;;;;;;;4977824;28;19928;-59
2023/10/13 00:53:39;;;;;;;12.40;10.55;;;;;;;;;;4983608;28;20506;-59
2023/10/13 00:56:07;;;;;;;11.93;10.75;;;;;;;;;;4983882;28;20119;-59
2023/10/13 00:58:34;;;;;;;10.00;9.00;;;;;;;;;;4984316;28;20062;-59
2023/10/13 01:01:17;;;;;;;10.40;9.30;;;;;;;;;;4983767;28;20447;-59
2023/10/13 01:03:59;;;;;;;11.52;10.07;;;;;;;;;;4980951;28;20427;-59
2023/10/13 01:06:25;;;;;;;13.47;10.87;;;;;;;;;;4984257;28;20143;-59
2023/10/13 01:09:11;;;;;;;11.20;9.23;;;;;;;;;;4966120;28;20133;-60
2023/10/13 01:11:37;;;;;;;9.02;8.13;;;;;;;;;;4983836;28;20042;-60
2023/10/13 01:14:04;;;;;;;7.80;7.10;;;;;;;;;;4983272;28;20529;-59
2023/10/13 01:16:30;;;;;;;7.20;6.60;;;;;;;;;;4983892;28;20078;-59
2023/10/13 01:18:59;;;;;;;8.77;7.95;;;;;;;;;;4984146;28;20050;-59
2023/10/13 01:21:29;;;;;;;8.35;7.55;;;;;;;;;;4983246;28;20054;-59
2023/10/13 01:23:55;;;;;;;8.90;7.28;;;;;;;;;;4983640;28;20050;-59
2023/10/13 01:26:24;;;;;;;9.35;8.25;;;;;;;;;;4984294;28;20042;-59
2023/10/13 01:28:50;;;;;;;5.88;5.28;;;;;;;;;;4984097;28;20042;-59
2023/10/13 01:31:30;;;;;;;5.55;5.05;;;;;;;;;;4982100;28;20051;-59
2023/10/13 01:33:59;;;;;;;8.65;7.85;;;;;;;;;;4980784;28;20129;-59
2023/10/13 01:36:27;;;;;;;8.52;7.72;;;;;;;;;;4983015;28;20503;-60
2023/10/13 01:38:53;;;;;;;6.43;5.82;;;;;;;;;;4983993;28;20092;-60
2023/10/13 01:41:20;;;;;;;4.90;4.30;;;;;;;;;;4984504;28;20076;-60
2023/10/13 01:43:46;;;;;;;7.57;6.78;;;;;;;;;;4983336;28;20073;-60
2023/10/13 01:46:15;;;;;;;6.60;6.00;;;;;;;;;;4984074;28;20085;-59
2023/10/13 01:48:43;;;;;;;6.55;5.85;;;;;;;;;;4982849;28;20035;-59
2023/10/13 01:51:10;;;;;;;7.28;6.43;;;;;;;;;;4983104;28;20050;-59
2023/10/13 01:53:39;;;;;;;5.85;5.28;;;;;;;;;;4984221;28;20047;-59
2023/10/13 01:56:10;;;;;;;6.57;5.93;;;;;;;;;;4983633;28;20053;-59
2023/10/13 01:58:36;;;;;;;5.90;5.35;;;;;;;;;;4983410;28;20154;-60
2023/10/13 02:01:03;;;;;;;8.85;7.93;;;;;;;;;;4986101;28;20038;-59
2023/10/13 02:03:30;;;;;;;8.77;7.75;;;;;;;;;;4988282;28;20072;-59
2023/10/13 02:06:03;;;;;;;8.55;7.18;;;;;;;;;;4986530;28;20038;-59
2023/10/13 02:08:29;;;;;;;7.85;7.03;;;;;;;;;;4986953;28;20038;-60
2023/10/13 02:10:56;;;;;;;7.28;6.60;;;;;;;;;;4987204;28;20046;-59
2023/10/13 02:13:23;;;;;;;8.48;7.57;;;;;;;;;;4987062;28;20045;-59
2023/10/13 02:15:51;;;;;;;9.38;6.50;;;;;;;;;;4987987;28;20038;-59
2023/10/13 02:18:25;;;;;;;6.32;5.57;;;;;;;;;;4986446;28;20050;-59
2023/10/13 02:20:55;;;;;;;6.82;5.57;;;;;;;;;;4983871;28;20538;-59
2023/10/13 02:23:29;;;;;;;7.75;6.93;;;;;;;;;;4986233;28;20073;-59
2023/10/13 02:26:11;;;;;;;8.77;7.30;;;;;;;;;;4986396;28;20038;-60
2023/10/13 02:28:37;;;;;;;11.18;8.15;;;;;;;;;;4985599;28;20042;-59
2023/10/13 02:31:04;;;;;;;8.38;7.05;;;;;;;;;;4986823;28;20192;-59
2023/10/13 02:33:30;;;;;;;10.63;6.80;;;;;;;;;;4986625;28;20046;-59
2023/10/13 02:36:11;;;;;;;5.85;5.25;;;;;;;;;;4987179;28;20045;-59
2023/10/13 02:41:37;;;;;;;4.78;4.38;;;;;;;;;;4985460;28;20107;-59
2023/10/13 02:44:06;;;;;;;4.45;3.60;;;;;;;;;;4985370;28;20046;-59
2023/10/13 02:46:35;;;;;;;3.13;2.90;;;;;;;;;;4985753;28;20220;-59
2023/10/13 02:49:02;;;;;;;5.80;4.97;;;;;;;;;;4984953;28;20050;-59
2023/10/13 02:51:35;;;;;;;6.05;5.45;;;;;;;;;;4987066;28;20054;-59
2023/10/13 02:54:09;;;;;;;4.40;4.10;;;;;;;;;;4985369;28;20050;-59
2023/10/13 02:56:36;;;;;;;4.85;4.35;;;;;;;;;;4985377;28;20414;-59
2023/10/13 02:59:05;;;;;;;5.57;5.07;;;;;;;;;;4985476;28;20045;-60
2023/10/13 03:01:34;;;;;;;4.30;3.95;;;;;;;;;;4986187;28;20137;-59
2023/10/13 03:04:01;;;;;;;5.00;4.60;;;;;;;;;;4985769;28;20044;-60
2023/10/13 03:06:33;;;;;;;4.90;4.47;;;;;;;;;;4986477;28;20133;-59
2023/10/13 03:09:13;;;;;;;5.80;4.97;;;;;;;;;;4986027;28;20483;-59
2023/10/13 03:11:47;;;;;;;4.28;3.88;;;;;;;;;;4986251;28;20097;-59
2023/10/13 03:14:23;;;;;;;3.80;3.50;;;;;;;;;;4986024;28;20093;-59
2023/10/13 03:17:05;;;;;;;3.63;3.33;;;;;;;;;;4985694;28;20445;-60
2023/10/13 03:19:35;;;;;;;4.30;3.90;;;;;;;;;;4985531;28;20048;-59
2023/10/13 03:22:12;;;;;;;4.00;3.70;;;;;;;;;;4985682;28;20069;-59
2023/10/13 03:24:44;;;;;;;3.22;2.97;;;;;;;;;;4985047;28;20043;-60
2023/10/13 03:27:12;;;;;;;5.18;4.78;;;;;;;;;;4985995;28;20057;-60
2023/10/13 03:29:43;;;;;;;7.00;6.30;;;;;;;;;;4985332;28;20050;-60
2023/10/13 03:32:12;;;;;;;7.53;6.85;;;;;;;;;;4985530;28;20133;-59
2023/10/13 03:35:04;;;;;;;9.93;9.02;;;;;;;;;;4983839;28;20041;-60
2023/10/13 03:37:39;;;;;;;13.38;10.68;;;;;;;;;;4985204;28;20067;-60
2023/10/13 03:40:07;;;;;;;8.35;7.65;;;;;;;;;;4983888;28;20050;-59
2023/10/13 03:42:33;;;;;;;8.40;7.60;;;;;;;;;;4984870;28;20049;-59
2023/10/13 03:44:59;;;;;;;6.55;5.82;;;;;;;;;;4984465;28;20073;-60
2023/10/13 03:47:32;;;;;;;8.88;7.97;;;;;;;;;;4984871;28;20069;-59
2023/10/13 03:50:15;;;;;;;7.82;7.10;;;;;;;;;;4982370;28;20069;-59
2023/10/13 03:52:41;;;;;;;8.57;7.78;;;;;;;;;;4984123;28;20042;-60
2023/10/13 03:55:07;;;;;;;8.65;7.85;;;;;;;;;;4984397;28;20046;-59
2023/10/13 03:57:34;;;;;;;7.45;6.75;;;;;;;;;;4985011;28;20486;-60
2023/10/13 04:00:08;;;;;;;8.45;7.65;;;;;;;;;;4985309;28;20384;-59
2023/10/13 04:02:36;;;;;;;5.60;5.10;;;;;;;;;;4985451;28;20034;-60
2023/10/13 04:05:09;;;;;;;5.50;5.00;;;;;;;;;;4984329;28;20068;-60
2023/10/13 04:08:44;;;;;;;7.78;7.07;;;;;;;;;;4984635;28;20051;-59
2023/10/13 04:16:15;;;;;;;5.38;4.97;;;;;;;;;;4984869;28;20046;-59
2023/10/13 04:19:03;;;;;;;4.22;3.92;;;;;;;;;;4982795;28;20046;-60
2023/10/13 04:22:14;;;;;;;4.35;4.00;;;;;;;;;;4985145;28;20042;-59
2023/10/13 04:29:48;;;;;;;3.50;3.20;;;;;;;;;;4975530;28;20629;-59
2023/10/13 04:32:15;;;;;;;3.97;3.58;;;;;;;;;;4983898;28;20121;-59
2023/10/13 04:34:45;;;;;;;4.40;4.10;;;;;;;;;;4985161;28;20117;-58
2023/10/13 04:37:47;;;;;;;8.00;7.22;;;;;;;;;;4984005;28;20038;-59
2023/10/13 04:40:14;;;;;;;6.35;5.75;;;;;;;;;;4983453;28;20503;-59
2023/10/13 04:42:49;;;;;;;4.85;4.45;;;;;;;;;;4966474;28;20212;-60
2023/10/13 04:48:13;;;;;;;;;;;;;;;;;;4982171;28;20119;-59
2023/10/13 04:50:45;;;;;;;7.90;7.20;;;;;;;;;;4985095;28;20025;-59
2023/10/13 04:53:27;;;;;;;8.00;7.25;;;;;;;;;;4983036;28;20057;-60
2023/10/13 04:59:17;;;;;;;7.13;6.43;;;;;;;;;;4984503;28;20039;-60
2023/10/13 06:28:43;;;;;;;3.17;2.97;;;;;;;;;;4985931;28;20035;-59
2023/10/13 06:31:28;;;;;;;3.65;3.38;;;;;;;;;;4964372;28;20054;-60
2023/10/13 06:33:55;;;;;;;4.25;3.85;;;;;;;;;;4987774;28;20133;-59
2023/10/13 06:36:21;;;;;;;3.30;3.10;;;;;;;;;;4988937;28;20050;-59
2023/10/13 06:38:55;;;;;;;4.15;3.85;;;;;;;;;;4988363;28;20050;-60
2023/10/13 06:41:30;;;;;;;4.50;3.92;;;;;;;;;;4988874;28;20548;-59
2023/10/13 06:43:59;;;;;;;3.35;3.15;;;;;;;;;;4988902;28;20453;-60
2023/10/13 06:46:28;;;;;;;3.25;3.05;;;;;;;;;;4987536;28;20042;-59
2023/10/13 06:48:54;;;;;;;3.40;3.10;;;;;;;;;;4987283;28;20046;-60
2023/10/13 06:51:25;;;;;;;3.50;3.20;;;;;;;;;;4988025;28;20058;-59
2023/10/13 06:53:56;;;;;;;3.58;3.28;;;;;;;;;;4988123;28;20042;-60
2023/10/13 06:56:22;;;;;;;3.00;2.70;;;;;;;;;;4988408;28;20117;-59
2023/10/13 06:58:51;;;;;;;2.20;2.00;;;;;;;;;;4988805;28;20038;-59
2023/10/13 07:01:22;;;;;;;2.85;2.65;;;;;;;;;;4986308;28;20073;-59
2023/10/13 07:03:52;;;;;;;4.78;3.33;;;;;;;;;;4988500;28;20502;-60
2023/10/13 07:06:19;;;;;;;5.97;3.13;;;;;;;;;;4988731;28;20054;-59
2023/10/13 07:08:51;;;;;;;4.22;2.95;;;;;;;;;;4987608;28;20081;-60
2023/10/13 07:11:32;;;;;;;3.45;3.13;;;;;;;;;;4988821;28;20042;-60
2023/10/13 07:13:58;;;;;;;4.45;3.35;;;;;;;;;;4987646;28;20053;-59
2023/10/13 07:16:24;;;;;;;5.47;3.90;;;;;;;;;;4988057;28;20042;-59
2023/10/13 07:18:52;;;;;;;6.95;3.65;;;;;;;;;;4986502;28;20046;-59
2023/10/13 07:21:30;;;;;;;5.13;3.60;;;;;;;;;;4985918;28;20479;-59
2023/10/13 07:24:11;;;;;;;6.43;3.78;;;;;;;;;;4985968;28;20046;-59
2023/10/13 07:26:42;;;;;;;6.78;3.72;;;;;;;;;;4987365;28;20038;-59
2023/10/13 07:29:09;;;;;;;4.97;3.70;;;;;;;;;;4987229;28;20046;-60
2023/10/13 07:31:37;;;;;;;4.65;3.38;;;;;;;;;;4986188;28;20058;-58
2023/10/13 07:34:12;;;;;;;7.82;3.58;;;;;;;;;;4963808;28;20042;-55
2023/10/13 07:36:43;;;;;;;7.03;2.90;;;;;;;;;;4982627;28;20073;-61
2023/10/13 07:39:20;;;;;;;5.97;3.40;;;;;;;;;;4985195;28;20078;-63
2023/10/13 07:41:51;;;;;;;5.97;3.40;;;;;;;;;;4964114;28;20047;-60
2023/10/13 07:44:19;;;;;;;9.93;3.58;;;;;;;;;;4981762;28;20042;-60
2023/10/13 07:46:57;;;;;;;8.70;3.58;;;;;;;;;;4984669;28;20569;-61
2023/10/13 07:49:24;;;;;;;5.63;3.28;;;;;;;;;;4980512;28;20298;-60
2023/10/13 07:51:56;;;;;;;7.32;3.65;;;;;;;;;;4984774;28;20046;-60
2023/10/13 07:54:22;;;;;;;8.40;3.90;;;;;;;;;;4984003;28;20438;-61
2023/10/13 07:56:50;;;;;;;5.80;3.53;;;;;;;;;;4982651;28;20339;-61
2023/10/13 07:59:16;;;;;;;7.75;3.90;;;;;;;;;;4980577;28;20054;-60
2023/10/13 08:01:43;;;;;;;14.93;3.92;;;;;;;;;;4984601;28;20038;-60
2023/10/13 08:04:12;;;;;;;8.07;3.60;;;;;;;;;;4983456;28;20188;-60
2023/10/13 08:06:43;;;;;;;6.57;3.90;;;;;;;;;;4984712;28;20031;-60
2023/10/13 08:09:28;;;;;;;3.72;2.95;;;;;;;;;;4984491;28;20045;-60
2023/10/13 08:11:55;;;;;;;8.13;3.72;;;;;;;;;;4981873;28;20042;-60
2023/10/13 08:14:29;;;;;;;6.45;4.05;;;;;;;;;;4985163;28;20042;-61
2023/10/13 08:17:02;;;;;;;6.28;3.83;;;;;;;;;;4967270;28;20053;-60
2023/10/13 08:22:24;;;;;;;3.42;3.13;;;;;;;;;;4976372;28;20117;-61
2023/10/13 08:27:34;;;;;;;4.72;3.50;;;;;;;;;;4986036;28;20064;-60
2023/10/13 08:53:31;;;;;;;6.68;4.28;;;;;;;;;;4982138;28;20054;-60
2023/10/13 09:04:22;;;;;;;4.90;4.32;;;;;;;;;;4977614;28;20073;-60
2023/10/13 09:07:07;;;;;;;9.23;4.07;;;;;;;;;;4984640;28;20108;-60
2023/10/13 09:10:11;;;;;;;10.52;4.63;;;;;;;;;;4982972;28;20116;-59
2023/10/13 09:15:06;;;;;;;11.30;4.97;;;;;;;;;;4984827;28;20061;-59
2023/10/13 09:17:41;;;;;;;10.02;5.30;;;;;;;;;;4985220;28;20126;-58
2023/10/13 09:23:07;;;;;;;7.35;5.57;;;;;;;;;;4984271;28;20043;-58
2023/10/13 09:25:35;;;;;;;11.13;6.10;;;;;;;;;;4984173;28;20058;-58
2023/10/13 09:28:02;;;;;;;8.75;5.78;;;;;;;;;;4967241;28;20117;-58
2023/10/13 09:30:31;;;;;;;9.20;5.65;;;;;;;;;;4985566;28;20092;-58
2023/10/13 09:33:08;;;;;;;8.45;5.45;;;;;;;;;;4985173;28;20502;-58
2023/10/13 09:35:36;;;;;;;10.23;5.55;;;;;;;;;;4984397;28;20507;-59
2023/10/13 09:38:03;;;;;;;12.82;5.68;;;;;;;;;;4985075;28;20042;-58
2023/10/13 09:43:05;;;;;;;9.73;5.57;;;;;;;;;;4982864;28;20070;-58
2023/10/13 09:45:36;;;;;;;;;;;;;;;;;;4984398;28;20046;-58
2023/10/13 09:48:06;;;;;;;11.48;5.20;;;;;;;;;;4983742;28;19948;-58
2023/10/13 09:50:37;;;;;;;11.05;5.80;;;;;;;;;;4982920;28;20122;-58
2023/10/13 09:53:05;;;;;;;10.35;5.38;;;;;;;;;;4983636;28;20521;-58
2023/10/13 09:55:39;;;;;;;10.68;5.90;;;;;;;;;;4983333;28;20337;-58
2023/10/13 09:58:14;;;;;;;8.13;4.88;;;;;;;;;;4984494;28;20430;-58
2023/10/13 10:00:58;;;;;;;15.73;6.85;;;;;;;;;;4966969;28;20758;-58
2023/10/13 10:03:30;;;;;;;7.10;5.15;;;;;;;;;;4984402;28;20047;-58
2023/10/13 10:06:04;;;;;;;11.73;5.57;;;;;;;;;;4984775;28;20526;-58
2023/10/13 10:08:34;;;;;;;11.15;5.00;;;;;;;;;;4984867;28;20503;-58
2023/10/13 10:11:20;;;;;;;8.02;4.50;;;;;;;;;;4963457;28;20473;-58
2023/10/13 10:13:52;;;;;;;12.45;5.55;;;;;;;;;;4982919;28;20640;-58
2023/10/13 10:16:19;;;;;;;;;;;;;;;;;;4981101;28;20038;-58
2023/10/13 10:18:45;;;;;;;7.32;4.57;;;;;;;;;;4983981;28;19928;-59
2023/10/13 10:21:15;;;;;;;4.97;4.05;;;;;;;;;;4980840;28;20129;-59
2023/10/13 10:23:43;;;;;;;8.27;5.05;;;;;;;;;;4984089;28;20406;-59
2023/10/13 10:26:20;;;;;;;8.27;4.40;;;;;;;;;;4985842;28;20132;-60
2023/10/13 10:28:46;;;;;;;9.20;4.97;;;;;;;;;;4987623;28;20054;-59
2023/10/13 10:31:15;;;;;;;6.45;3.55;;;;;;;;;;4982483;28;20121;-59
2023/10/13 10:33:41;;;;;;;11.23;4.85;;;;;;;;;;4984663;28;20100;-59
2023/10/13 10:36:17;;;;;;;10.43;4.78;;;;;;;;;;4976867;28;20337;-59
2023/10/13 10:38:59;;;;;;;6.13;4.05;;;;;;;;;;4985522;28;20041;-59
2023/10/13 10:41:25;;;;;;;;;;;;;;;;;;4982980;28;20038;-59
2023/10/13 10:43:53;;;;;;;6.95;4.28;;;;;;;;;;4984798;28;19993;-59
2023/10/13 10:46:25;;;;;;;6.95;3.95;;;;;;;;;;4982938;28;20081;-59
2023/10/13 10:48:56;;;;;;;8.50;4.70;;;;;;;;;;4985816;28;20038;-59
2023/10/13 10:51:22;;;;;;;10.75;4.90;;;;;;;;;;4986759;28;20088;-59
2023/10/13 10:53:52;;;;;;;9.15;4.60;;;;;;;;;;4967088;28;20264;-59
2023/10/13 10:56:36;;;;;;;12.02;4.85;;;;;;;;;;4963647;28;20097;-59
2023/10/13 10:59:18;;;;;;;14.88;4.10;;;;;;;;;;4980403;28;20096;-59
2023/10/13 11:01:47;;;;;;;7.65;3.88;;;;;;;;;;4985549;28;20045;-59
2023/10/13 11:04:14;;;;;;;8.95;4.28;;;;;;;;;;4977674;28;20057;-59
2023/10/13 11:06:47;;;;;;;10.73;4.85;;;;;;;;;;4983367;28;20049;-59
2023/10/13 11:11:57;;;;;;;12.75;4.38;;;;;;;;;;4985932;28;20046;-59
2023/10/13 11:14:24;;;;;;;7.83;4.10;;;;;;;;;;4984880;28;20038;-59
2023/10/13 11:16:50;;;;;;;11.27;4.68;;;;;;;;;;4984287;28;20637;-59
2023/10/13 11:19:34;;;;;;;14.55;5.55;;;;;;;;;;4986571;28;20053;-59
2023/10/13 11:22:10;;;;;;;11.75;4.93;;;;;;;;;;4983656;28;20092;-59
2023/10/13 11:24:42;;;;;;;14.98;4.70;;;;;;;;;;4987136;28;20467;-59
2023/10/13 11:27:18;;;;;;;10.80;5.20;;;;;;;;;;4982251;28;20047;-59
2023/10/13 11:29:52;;;;;;;6.88;4.28;;;;;;;;;;4984932;28;20039;-59
2023/10/13 11:32:20;;;;;;;9.32;5.32;;;;;;;;;;4983325;28;20050;-59
2023/10/13 11:34:51;;;;;;;11.25;5.38;;;;;;;;;;4985230;28;20050;-59
2023/10/13 11:37:37;;;;;;;7.65;4.20;;;;;;;;;;4985627;28;21245;-59
2023/10/13 11:40:12;;;;;;;12.82;4.80;;;;;;;;;;4983070;28;20054;-59
2023/10/13 11:42:43;;;;;;;8.55;4.07;;;;;;;;;;4984583;28;20034;-59
2023/10/13 11:45:30;;;;;;;12.33;4.93;;;;;;;;;;4985423;28;20042;-59
2023/10/13 11:48:00;;;;;;;8.90;4.25;;;;;;;;;;4981496;28;20499;-59
2023/10/13 11:50:33;;;;;;;10.80;4.60;;;;;;;;;;4985783;28;20480;-59
2023/10/13 11:53:00;;;;;;;9.63;4.28;;;;;;;;;;4982193;28;20066;-59
2023/10/13 11:55:26;;;;;;;9.90;4.32;;;;;;;;;;4985189;28;20061;-59
2023/10/13 11:57:52;;;;;;;9.50;4.68;;;;;;;;;;4985637;28;20113;-60
2023/10/13 12:08:49;;;;;;;8.50;4.70;;;;;;;;;;4979257;28;20038;-59
2023/10/13 12:11:30;;;;;;;10.18;4.35;;;;;;;;;;4984387;28;20058;-60
2023/10/13 12:13:57;;;;;;;10.50;4.63;;;;;;;;;;4968230;28;20264;-59
2023/10/13 12:16:29;;;;;;;8.82;4.30;;;;;;;;;;4983787;28;20031;-59
2023/10/13 12:18:55;;;;;;;4.85;3.78;;;;;;;;;;4983200;28;20383;-59
2023/10/13 12:21:21;;;;;;;12.52;4.60;;;;;;;;;;4983346;28;20038;-59
2023/10/13 12:23:47;;;;;;;7.40;3.67;;;;;;;;;;4984915;28;20042;-59
2023/10/13 12:26:19;;;;;;;8.52;3.80;;;;;;;;;;4978343;28;20458;-60
2023/10/13 12:28:51;;;;;;;8.25;5.10;;;;;;;;;;4985567;28;20129;-60
2023/10/13 12:31:26;;;;;;;9.98;4.40;;;;;;;;;;4983181;28;20065;-59
2023/10/13 12:33:52;;;;;;;5.88;3.70;;;;;;;;;;4983033;28;20070;-59
2023/10/13 12:52:20;;;;;;;11.55;5.03;;;;;;;;;;4984664;28;20042;-59
2023/10/13 12:55:05;;;;;;;11.43;5.57;;;;;;;;;;4982854;28;20045;-59
2023/10/13 12:57:32;;;;;;;9.13;5.13;;;;;;;;;;4983747;28;20082;-59
2023/10/13 12:59:58;;;;;;;12.20;6.18;;;;;;;;;;4984491;28;20042;-59
2023/10/13 13:02:25;;;;;;;11.90;6.68;;;;;;;;;;4984981;28;20145;-59
2023/10/13 13:05:01;;;;;;;11.68;5.95;;;;;;;;;;4984865;28;20423;-59
2023/10/13 13:07:31;;;;;;;13.00;6.50;;;;;;;;;;4981033;28;20108;-59
2023/10/13 13:09:59;;;;;;;12.68;6.93;;;;;;;;;;4981442;28;20101;-60
2023/10/13 13:12:28;;;;;;;9.55;5.95;;;;;;;;;;4983996;28;20047;-59
2023/10/13 13:14:55;;;;;;;14.90;6.57;;;;;;;;;;4984573;28;20188;-59
2023/10/13 13:17:21;;;;;;;7.65;5.78;;;;;;;;;;4984359;28;20157;-59
2023/10/13 13:19:47;;;;;;;8.52;5.20;;;;;;;;;;4984654;28;20085;-60
2023/10/13 13:22:13;;;;;;;8.07;4.93;;;;;;;;;;4984503;28;20041;-59
2023/10/13 13:24:44;;;;;;;9.63;5.32;;;;;;;;;;4984806;28;20035;-59
2023/10/13 13:27:13;;;;;;;15.30;6.93;;;;;;;;;;4983515;28;20038;-59
2023/10/13 13:29:43;;;;;;;8.52;5.75;;;;;;;;;;4984544;28;20056;-59
2023/10/13 13:32:18;;;;;;;7.95;5.50;;;;;;;;;;4982708;28;20108;-59
2023/10/13 13:34:54;;;;;;;9.38;6.07;;;;;;;;;;4984081;28;20038;-59
2023/10/13 13:37:20;;;;;;;9.10;5.93;;;;;;;;;;4984564;28;20130;-59
2023/10/13 13:39:46;;;;;;;9.82;6.13;;;;;;;;;;4984811;28;20503;-59
2023/10/13 13:42:17;;;;;;;15.57;6.80;;;;;;;;;;4983469;28;20096;-58
2023/10/13 13:44:46;;;;;;;12.85;6.40;;;;;;;;;;4984659;28;20042;-58
2023/10/13 13:47:12;;;;;;;14.43;6.78;;;;;;;;;;4984358;28;20112;-58
2023/10/13 13:49:46;;;;;;;7.95;5.82;;;;;;;;;;4983072;28;20422;-58
2023/10/13 13:52:23;;;;;;;11.07;6.10;;;;;;;;;;4982976;28;20054;-58
2023/10/13 13:54:49;;;;;;;7.25;5.68;;;;;;;;;;4976520;28;20038;-58
2023/10/13 13:57:17;;;;;;;10.55;6.50;;;;;;;;;;4984123;28;20570;-58
2023/10/13 13:59:45;;;;;;;13.10;6.68;;;;;;;;;;4985787;28;20053;-58
2023/10/13 14:02:19;;;;;;;12.27;6.43;;;;;;;;;;4983014;28;20593;-58
2023/10/13 14:04:52;;;;;;;8.82;6.18;;;;;;;;;;4987332;28;20491;-58
2023/10/13 14:07:24;;;;;;;11.65;6.43;;;;;;;;;;4985731;28;20089;-58
2023/10/13 14:10:05;;;;;;;13.55;6.43;;;;;;;;;;4979721;28;20053;-58
2023/10/13 14:12:44;;;;;;;13.68;6.38;;;;;;;;;;4983063;28;20046;-58
2023/10/13 14:15:19;;;;;;;10.75;6.10;;;;;;;;;;4982667;28;20133;-58
2023/10/13 14:17:48;;;;;;;9.27;5.97;;;;;;;;;;4978531;28;20042;-57
2023/10/13 14:20:18;;;;;;;13.35;5.68;;;;;;;;;;4985785;28;20288;-58
2023/10/13 14:22:47;;;;;;;12.48;6.00;;;;;;;;;;4984887;28;20069;-58
2023/10/13 14:25:14;;;;;;;14.80;6.97;;;;;;;;;;4981975;28;20042;-58
2023/10/13 14:27:41;;;;;;;11.60;5.88;;;;;;;;;;4980126;28;20562;-58
2023/10/13 14:30:07;;;;;;;8.30;5.30;;;;;;;;;;4979507;28;20054;-59
2023/10/13 14:32:40;;;;;;;6.60;5.45;;;;;;;;;;4987172;28;20046;-58
2023/10/13 14:35:14;;;;;;;13.50;6.88;;;;;;;;;;4964092;28;20062;-58
2023/10/13 14:37:40;;;;;;;14.50;6.50;;;;;;;;;;4978325;28;20491;-58
2023/10/13 14:40:12;;;;;;;11.90;5.55;;;;;;;;;;4984685;28;20100;-59
2023/10/13 14:42:40;;;;;;;8.40;5.68;;;;;;;;;;4986036;28;20522;-58
2023/10/13 14:45:12;;;;;;;14.02;7.55;;;;;;;;;;4986161;28;20046;-58
2023/10/13 14:47:39;;;;;;;14.85;6.00;;;;;;;;;;4987095;28;20549;-58
2023/10/13 14:50:06;;;;;;;10.93;5.82;;;;;;;;;;4985141;28;20542;-58
2023/10/13 14:52:32;;;;;;;11.63;5.85;;;;;;;;;;4966585;28;20042;-59
2023/10/13 14:54:58;;;;;;;14.60;5.00;;;;;;;;;;4987031;28;20524;-58
2023/10/13 14:57:25;;;;;;;11.07;5.68;;;;;;;;;;4986053;28;20409;-59
2023/10/13 14:59:54;;;;;;;13.27;6.10;;;;;;;;;;4985292;28;20042;-58
2023/10/13 15:02:21;;;;;;;11.32;5.85;;;;;;;;;;4986387;28;20051;-58
2023/10/13 15:04:50;;;;;;;9.48;5.63;;;;;;;;;;4985565;28;20633;-58
2023/10/13 15:07:17;;;;;;;14.45;6.65;;;;;;;;;;4986075;28;20050;-59
2023/10/13 15:09:44;;;;;;;10.25;5.95;;;;;;;;;;4985552;28;20050;-58
2023/10/13 15:12:10;;;;;;;12.93;5.97;;;;;;;;;;4986539;28;20046;-58
2023/10/13 15:14:42;;;;;;;10.20;5.63;;;;;;;;;;4987424;28;20047;-58
2023/10/13 15:17:09;;;;;;;15.25;6.18;;;;;;;;;;4987108;28;20038;-58
2023/10/13 15:19:42;;;;;;;12.23;5.85;;;;;;;;;;4986580;28;20097;-58
2023/10/13 15:22:25;;;;;;;12.20;6.10;;;;;;;;;;4979850;28;20051;-58
2023/10/13 15:25:09;;;;;;;14.75;6.05;;;;;;;;;;4987541;28;20054;-59
2023/10/13 15:27:41;;;;;;;9.98;5.30;;;;;;;;;;4986545;28;20047;-58
2023/10/13 15:30:20;;;;;;;10.38;5.30;;;;;;;;;;4986783;28;20791;-59
2023/10/13 15:32:48;;;;;;;10.25;5.50;;;;;;;;;;4987211;28;20263;-58
2023/10/13 15:35:15;;;;;;;15.77;6.13;;;;;;;;;;4986114;28;20590;-58
2023/10/13 15:37:47;;;;;;;10.98;5.50;;;;;;;;;;4987105;28;20142;-58
2023/10/13 15:40:15;;;;;;;8.13;5.57;;;;;;;;;;4986122;28;20537;-58
2023/10/13 15:42:42;;;;;;;12.30;5.43;;;;;;;;;;4986780;28;20104;-58
2023/10/13 15:45:16;;;;;;;12.88;5.53;;;;;;;;;;4986660;28;20053;-58
2023/10/13 15:47:45;;;;;;;11.40;5.70;;;;;;;;;;4986300;28;20042;-58
2023/10/13 15:50:15;;;;;;;13.00;5.45;;;;;;;;;;4986391;28;20057;-58
2023/10/13 15:52:45;;;;;;;12.63;5.93;;;;;;;;;;4986701;28;20046;-58
2023/10/13 15:55:13;;;;;;;12.93;5.85;;;;;;;;;;4983256;28;20112;-60
2023/10/13 15:57:39;;;;;;;11.35;5.40;;;;;;;;;;4981577;28;20045;-58
2023/10/13 16:00:23;;;;;;;11.02;5.47;;;;;;;;;;4985042;28;20050;-59
2023/10/13 16:02:58;;;;;;;12.48;5.28;;;;;;;;;;4987151;28;20038;-59
2023/10/13 16:05:29;;;;;;;14.57;6.22;;;;;;;;;;4982627;28;20076;-58
2023/10/13 16:07:55;;;;;;;9.18;5.20;;;;;;;;;;4984041;28;20046;-59
2023/10/13 16:10:21;;;;;;;10.73;5.10;;;;;;;;;;4986268;28;20042;-59
2023/10/13 16:12:48;;;;;;;8.07;4.82;;;;;;;;;;4970002;28;20113;-58
2023/10/13 16:15:14;;;;;;;9.32;4.95;;;;;;;;;;4986593;28;20038;-59
2023/10/13 16:17:40;;;;;;;10.35;5.38;;;;;;;;;;4986921;28;20042;-59
2023/10/13 16:20:15;;;;;;;10.63;5.78;;;;;;;;;;4986918;28;20133;-58
2023/10/13 16:22:43;;;;;;;9.85;5.57;;;;;;;;;;4986253;28;20050;-58
2023/10/13 16:25:11;;;;;;;11.35;5.32;;;;;;;;;;4979844;28;20042;-58
2023/10/13 16:27:39;;;;;;;8.50;4.70;;;;;;;;;;4986065;28;20046;-58
2023/10/13 16:30:09;;;;;;;8.68;4.65;;;;;;;;;;4982599;28;20049;-58
2023/10/13 16:32:35;;;;;;;10.13;5.07;;;;;;;;;;4986303;28;20035;-58
2023/10/13 16:35:02;;;;;;;10.32;5.03;;;;;;;;;;4985257;28;20047;-59
2023/10/13 16:37:30;;;;;;;13.65;5.22;;;;;;;;;;4985177;28;20113;-58
2023/10/13 16:40:04;;;;;;;10.98;4.57;;;;;;;;;;4985918;28;20065;-58
2023/10/13 16:42:33;;;;;;;10.88;4.78;;;;;;;;;;4978559;28;20419;-58
2023/10/13 16:45:14;;;;;;;6.00;4.47;;;;;;;;;;4985085;28;20145;-59
2023/10/13 16:47:42;;;;;;;13.23;4.45;;;;;;;;;;4978839;28;20398;-58
2023/10/13 16:50:08;;;;;;;12.48;4.90;;;;;;;;;;4984462;28;20046;-58
2023/10/13 16:52:34;;;;;;;5.85;4.13;;;;;;;;;;4976112;28;20046;-58
2023/10/13 16:55:00;;;;;;;10.90;4.97;;;;;;;;;;4978383;28;20077;-59
2023/10/13 16:57:26;;;;;;;9.10;4.90;;;;;;;;;;4982086;28;20046;-58
2023/10/13 16:59:52;;;;;;;15.60;4.88;;;;;;;;;;4982454;28;20043;-59
2023/10/13 17:02:19;;;;;;;8.43;3.85;;;;;;;;;;4987902;28;20099;-58
2023/10/13 17:04:45;;;;;;;6.97;3.80;;;;;;;;;;4981914;28;20065;-58
2023/10/13 17:07:13;;;;;;;10.52;4.38;;;;;;;;;;4978591;28;20395;-58
2023/10/13 17:09:40;;;;;;;9.70;4.03;;;;;;;;;;4976380;28;20042;-58
2023/10/13 17:12:06;;;;;;;7.88;3.80;;;;;;;;;;4976980;28;20137;-58
2023/10/13 17:14:32;;;;;;;5.55;3.30;;;;;;;;;;4978088;28;20073;-58
2023/10/13 17:16:58;;;;;;;7.28;3.40;;;;;;;;;;4980231;28;20038;-59
2023/10/13 17:19:24;;;;;;;6.07;3.58;;;;;;;;;;4963570;28;20092;-58
2023/10/13 17:21:50;;;;;;;8.55;3.67;;;;;;;;;;4982018;28;20462;-59
2023/10/13 17:24:17;;;;;;;5.00;3.05;;;;;;;;;;4980303;28;20488;-58
2023/10/13 17:26:43;;;;;;;7.68;3.28;;;;;;;;;;4980466;28;20057;-59
2023/10/13 17:29:09;;;;;;;5.63;3.05;;;;;;;;;;4978137;28;20035;-59
2023/10/13 17:31:36;;;;;;;9.57;4.40;;;;;;;;;;4980047;28;20510;-59
2023/10/13 17:34:02;;;;;;;7.10;3.53;;;;;;;;;;4982969;28;20046;-59
2023/10/13 17:36:29;;;;;;;9.10;3.33;;;;;;;;;;4983990;28;20489;-59
2023/10/13 17:38:55;;;;;;;5.85;3.65;;;;;;;;;;4985044;28;20093;-58
2023/10/13 17:41:23;;;;;;;9.30;4.82;;;;;;;;;;4984782;28;20045;-58
2023/10/13 17:43:49;;;;;;;10.73;4.43;;;;;;;;;;4986454;28;20050;-59
2023/10/13 17:46:15;;;;;;;5.63;3.38;;;;;;;;;;4983195;28;20039;-59
2023/10/13 17:48:43;;;;;;;9.65;4.63;;;;;;;;;;4984014;28;20073;-58
2023/10/13 17:51:10;;;;;;;8.52;4.22;;;;;;;;;;4984598;28;20054;-59
2023/10/13 17:53:39;;;;;;;8.60;4.82;;;;;;;;;;4984435;28;20100;-58
2023/10/13 17:56:12;;;;;;;9.90;3.70;;;;;;;;;;4984677;28;20050;-59
2023/10/13 17:58:42;;;;;;;10.30;4.63;;;;;;;;;;4984566;28;20046;-58
2023/10/13 18:01:17;;;;;;;9.73;3.90;;;;;;;;;;4984331;28;20122;-59
2023/10/13 18:03:43;;;;;;;10.82;4.63;;;;;;;;;;4986398;28;20476;-58
2023/10/13 18:06:10;;;;;;;8.10;4.55;;;;;;;;;;4987086;28;20053;-59
2023/10/13 18:08:37;;;;;;;10.88;4.97;;;;;;;;;;4976495;28;20511;-59